Time;durP1;ratioP1;P1;durP2;ratioP2;P2;SDS_P1;SDS_P2;PMS_P1;PMS_P2;Temp;Humidity;BMP_temperature;BMP_pressure;BME280_temperature;BME280_humidity;BME280_pressure;Samples;Min_cycle;Max_cycle;Signal;HPM_P1;HPM_P2
2021/05/04 00:00:23;;;;;;;9.90;5.97;;;;;;;;;;6212252;23;20198;-91
2021/05/04 00:03:28;;;;;;;11.30;6.60;;;;;;;;;;6210941;23;20171;-92
2021/05/04 00:06:32;;;;;;;12.73;6.50;;;;;;;;;;6212986;23;20159;-91
2021/05/04 00:09:38;;;;;;;11.50;6.17;;;;;;;;;;6214653;23;20166;-93
2021/05/04 00:12:43;;;;;;;12.77;6.53;;;;;;;;;;6211751;23;20183;-92
2021/05/04 00:15:48;;;;;;;12.87;5.50;;;;;;;;;;6211642;23;20166;-92
2021/05/04 00:18:53;;;;;;;11.70;6.47;;;;;;;;;;6212374;23;20167;-90
2021/05/04 00:21:57;;;;;;;11.57;6.00;;;;;;;;;;6211579;23;20170;-91
2021/05/04 00:25:03;;;;;;;13.20;6.30;;;;;;;;;;6212029;23;20167;-91
2021/05/04 00:28:07;;;;;;;15.63;6.53;;;;;;;;;;6212613;23;20167;-93
2021/05/04 00:31:12;;;;;;;10.93;5.87;;;;;;;;;;6212023;23;20194;-92
2021/05/04 00:34:17;;;;;;;12.40;6.70;;;;;;;;;;6211312;23;20547;-92
2021/05/04 00:37:21;;;;;;;12.50;6.57;;;;;;;;;;6211429;23;20191;-92
2021/05/04 00:40:27;;;;;;;14.37;6.57;;;;;;;;;;6213865;23;20206;-91
2021/05/04 00:43:33;;;;;;;14.60;6.83;;;;;;;;;;6212836;23;20174;-90
2021/05/04 00:46:37;;;;;;;12.50;6.33;;;;;;;;;;6211888;23;20166;-92
2021/05/04 00:49:42;;;;;;;12.50;6.40;;;;;;;;;;6211837;23;20167;-91
2021/05/04 00:52:47;;;;;;;14.50;6.90;;;;;;;;;;6210822;23;20210;-93
2021/05/04 00:55:53;;;;;;;11.33;6.90;;;;;;;;;;6210332;23;20193;-91
2021/05/04 00:58:58;;;;;;;15.30;6.80;;;;;;;;;;6211187;23;20670;-90
2021/05/04 01:02:03;;;;;;;19.10;6.93;;;;;;;;;;6197884;23;20270;-91
2021/05/04 01:05:08;;;;;;;11.63;6.17;;;;;;;;;;6198848;23;20160;-91
2021/05/04 01:08:13;;;;;;;13.97;6.73;;;;;;;;;;6200162;23;20175;-92
2021/05/04 01:11:19;;;;;;;13.97;7.20;;;;;;;;;;6198581;23;20521;-92
2021/05/04 01:14:23;;;;;;;11.43;6.57;;;;;;;;;;6199721;23;20171;-91
2021/05/04 01:17:30;;;;;;;15.77;7.17;;;;;;;;;;6199651;23;20168;-91
2021/05/04 01:20:37;;;;;;;18.73;6.93;;;;;;;;;;6198880;23;20223;-91
2021/05/04 01:23:43;;;;;;;18.67;7.40;;;;;;;;;;6198502;23;20176;-91
2021/05/04 01:26:48;;;;;;;11.07;6.73;;;;;;;;;;6199609;23;20167;-91
2021/05/04 01:33:28;;;;;;;11.03;6.30;;;;;;;;;;6200653;23;20667;-90
2021/05/04 01:36:33;;;;;;;18.47;8.53;;;;;;;;;;6183083;23;20168;-92
2021/05/04 01:39:43;;;;;;;13.80;6.90;;;;;;;;;;6183108;23;20212;-92
2021/05/04 01:42:48;;;;;;;12.83;7.60;;;;;;;;;;6183117;23;20615;-90
2021/05/04 01:45:53;;;;;;;14.90;7.70;;;;;;;;;;6183141;23;20191;-91
2021/05/04 01:48:57;;;;;;;14.30;7.43;;;;;;;;;;6182314;23;20191;-92
2021/05/04 01:52:02;;;;;;;16.23;7.73;;;;;;;;;;6183121;23;20192;-90
2021/05/04 01:55:09;;;;;;;14.73;7.40;;;;;;;;;;6185161;23;20188;-92
2021/05/04 01:58:14;;;;;;;14.53;8.23;;;;;;;;;;6184645;23;20168;-91
2021/05/04 02:01:18;;;;;;;16.67;8.13;;;;;;;;;;6184677;23;20500;-90
2021/05/04 02:04:25;;;;;;;18.90;8.23;;;;;;;;;;6183853;23;20183;-91
2021/05/04 02:07:30;;;;;;;14.90;7.93;;;;;;;;;;6186011;23;20279;-92
2021/05/04 02:10:35;;;;;;;17.13;7.87;;;;;;;;;;6184348;23;20195;-92
2021/05/04 02:13:39;;;;;;;16.40;8.00;;;;;;;;;;6182831;23;20171;-91
2021/05/04 02:16:44;;;;;;;18.97;8.07;;;;;;;;;;6183324;23;20155;-93
2021/05/04 02:19:48;;;;;;;14.70;8.00;;;;;;;;;;6183513;23;20191;-91
2021/05/04 02:22:53;;;;;;;17.87;8.60;;;;;;;;;;6183021;23;20172;-92
2021/05/04 02:26:00;;;;;;;17.90;8.23;;;;;;;;;;6185170;23;20172;-91
2021/05/04 02:29:04;;;;;;;16.43;8.67;;;;;;;;;;6185284;23;20179;-90
2021/05/04 02:32:09;;;;;;;16.97;8.40;;;;;;;;;;6185715;23;20211;-91
2021/05/04 02:35:14;;;;;;;14.63;8.83;;;;;;;;;;6184666;23;20217;-91
2021/05/04 02:38:19;;;;;;;16.87;9.13;;;;;;;;;;6184830;23;20219;-90
2021/05/04 02:41:24;;;;;;;22.20;8.40;;;;;;;;;;6184109;23;20175;-91
2021/05/04 02:44:30;;;;;;;17.20;8.77;;;;;;;;;;6183182;23;20159;-90
2021/05/04 02:47:35;;;;;;;17.00;7.97;;;;;;;;;;6182958;23;20726;-91
2021/05/04 02:50:39;;;;;;;18.43;9.40;;;;;;;;;;6183931;23;20216;-92
2021/05/04 02:53:44;;;;;;;18.07;9.50;;;;;;;;;;6183051;23;20171;-90
2021/05/04 02:56:50;;;;;;;17.23;9.67;;;;;;;;;;6184275;23;20171;-91
2021/05/04 02:59:55;;;;;;;21.77;10.27;;;;;;;;;;6183327;23;20249;-91
2021/05/04 03:03:00;;;;;;;21.40;10.00;;;;;;;;;;6184108;23;20172;-90
2021/05/04 03:06:05;;;;;;;17.87;9.90;;;;;;;;;;6184195;23;20167;-91
2021/05/04 03:09:10;;;;;;;19.53;9.70;;;;;;;;;;6184305;23;20168;-91
2021/05/04 03:12:16;;;;;;;19.40;9.33;;;;;;;;;;6183903;23;20171;-91
2021/05/04 03:15:21;;;;;;;17.07;9.30;;;;;;;;;;6184182;23;20220;-92
2021/05/04 03:18:25;;;;;;;20.47;10.20;;;;;;;;;;6184215;23;20164;-91
2021/05/04 03:21:30;;;;;;;17.30;9.50;;;;;;;;;;6183701;23;20163;-91
2021/05/04 03:24:35;;;;;;;22.40;10.00;;;;;;;;;;6181264;23;20172;-90
2021/05/04 03:27:40;;;;;;;22.30;9.67;;;;;;;;;;6183067;23;20191;-90
2021/05/04 03:30:45;;;;;;;19.97;9.33;;;;;;;;;;6183838;23;20207;-91
2021/05/04 03:33:51;;;;;;;22.70;10.60;;;;;;;;;;6184472;23;20167;-91
2021/05/04 03:36:56;;;;;;;19.80;10.30;;;;;;;;;;6184668;23;20311;-92
2021/05/04 03:40:01;;;;;;;21.87;10.83;;;;;;;;;;6184373;23;20172;-91
2021/05/04 03:43:07;;;;;;;19.37;9.83;;;;;;;;;;6183979;23;20187;-91
2021/05/04 03:46:11;;;;;;;18.97;10.53;;;;;;;;;;6183150;23;20163;-91
2021/05/04 03:49:16;;;;;;;17.70;9.47;;;;;;;;;;6183536;23;20167;-91
2021/05/04 03:52:21;;;;;;;16.60;9.10;;;;;;;;;;6184539;23;20242;-92
2021/05/04 03:55:26;;;;;;;19.57;9.60;;;;;;;;;;6183414;23;20191;-91
2021/05/04 03:58:31;;;;;;;16.97;8.77;;;;;;;;;;6182717;23;20172;-90
2021/05/04 04:01:48;;;;;;;18.37;9.30;;;;;;;;;;6182401;23;20171;-91
2021/05/04 04:04:52;;;;;;;19.93;10.00;;;;;;;;;;6182307;23;20200;-90
2021/05/04 04:07:57;;;;;;;18.63;9.87;;;;;;;;;;6183547;23;20239;-92
2021/05/04 04:11:01;;;;;;;18.90;10.17;;;;;;;;;;6180935;23;20594;-92
2021/05/04 04:14:07;;;;;;;18.50;9.50;;;;;;;;;;6182979;23;20196;-90
2021/05/04 04:17:12;;;;;;;19.80;10.30;;;;;;;;;;6180766;23;20232;-91
2021/05/04 04:20:17;;;;;;;19.20;9.87;;;;;;;;;;6181382;23;20220;-91
2021/05/04 04:23:22;;;;;;;21.90;10.50;;;;;;;;;;6181858;23;20619;-91
2021/05/04 04:26:27;;;;;;;15.53;9.57;;;;;;;;;;6182476;23;20195;-91
2021/05/04 04:29:33;;;;;;;19.93;9.97;;;;;;;;;;6183348;23;20168;-91
2021/05/04 04:32:38;;;;;;;21.20;10.40;;;;;;;;;;6183310;23;20192;-91
2021/05/04 04:35:42;;;;;;;25.50;11.37;;;;;;;;;;6181861;23;20195;-91
2021/05/04 04:38:47;;;;;;;29.93;11.07;;;;;;;;;;6182967;23;20167;-91
2021/05/04 04:41:51;;;;;;;29.00;10.33;;;;;;;;;;6182794;23;20203;-91
2021/05/04 04:44:57;;;;;;;20.20;10.53;;;;;;;;;;6183218;23;20188;-91
2021/05/04 04:48:01;;;;;;;24.23;11.30;;;;;;;;;;6184961;23;20163;-90
2021/05/04 04:51:06;;;;;;;34.83;10.97;;;;;;;;;;6182854;23;20220;-91
2021/05/04 04:54:11;;;;;;;38.80;11.43;;;;;;;;;;6182955;23;20171;-92
2021/05/04 04:57:16;;;;;;;25.60;11.90;;;;;;;;;;6185484;23;20211;-93
2021/05/04 05:00:22;;;;;;;21.13;10.47;;;;;;;;;;6184482;23;20168;-91
2021/05/04 05:03:34;;;;;;;20.37;10.40;;;;;;;;;;6185696;23;20175;-92
2021/05/04 05:06:39;;;;;;;32.57;11.90;;;;;;;;;;6184544;23;20485;-91
2021/05/04 05:09:45;;;;;;;20.47;10.17;;;;;;;;;;6183153;23;20180;-91
2021/05/04 05:12:50;;;;;;;23.53;11.57;;;;;;;;;;6185685;23;20199;-90
2021/05/04 05:15:55;;;;;;;24.17;11.17;;;;;;;;;;6184157;23;20241;-92
2021/05/04 05:19:00;;;;;;;27.87;11.37;;;;;;;;;;6184039;23;20229;-92
2021/05/04 05:22:07;;;;;;;21.37;11.47;;;;;;;;;;6200552;23;20196;-91
2021/05/04 05:25:13;;;;;;;25.60;11.47;;;;;;;;;;6183508;23;20168;-92
2021/05/04 05:28:18;;;;;;;23.43;11.10;;;;;;;;;;6183292;23;20171;-92
2021/05/04 05:31:25;;;;;;;22.53;10.70;;;;;;;;;;6169582;23;20212;-92
2021/05/04 05:34:30;;;;;;;22.37;10.30;;;;;;;;;;6169901;23;20172;-92
2021/05/04 05:37:35;;;;;;;21.70;10.77;;;;;;;;;;6172013;23;20193;-93
2021/05/04 05:40:39;;;;;;;21.37;11.30;;;;;;;;;;6170487;23;20216;-91
2021/05/04 05:43:44;;;;;;;20.60;11.70;;;;;;;;;;6171734;23;20168;-92
2021/05/04 05:46:51;;;;;;;22.63;13.10;;;;;;;;;;6169044;23;20528;-93
2021/05/04 05:49:56;;;;;;;24.17;11.40;;;;;;;;;;6172566;23;20466;-92
2021/05/04 05:53:01;;;;;;;24.60;11.73;;;;;;;;;;6170651;23;20208;-92
2021/05/04 05:56:07;;;;;;;19.80;10.57;;;;;;;;;;6172242;23;20169;-92
2021/05/04 05:59:11;;;;;;;19.93;9.50;;;;;;;;;;6172970;23;20172;-91
2021/05/04 06:02:17;;;;;;;20.87;9.37;;;;;;;;;;6171493;23;20177;-92
2021/05/04 06:05:22;;;;;;;17.70;9.43;;;;;;;;;;6170010;23;20168;-93
2021/05/04 06:08:30;;;;;;;20.57;10.97;;;;;;;;;;6169901;23;20200;-91
2021/05/04 06:11:34;;;;;;;20.80;10.93;;;;;;;;;;6167423;23;20240;-90
2021/05/04 06:14:39;;;;;;;19.13;10.63;;;;;;;;;;6168103;23;20213;-93
2021/05/04 06:17:45;;;;;;;17.77;10.67;;;;;;;;;;6171299;23;20177;-91
2021/05/04 06:20:49;;;;;;;23.83;11.07;;;;;;;;;;6171776;23;20515;-91
2021/05/04 06:23:54;;;;;;;20.40;11.67;;;;;;;;;;6168013;23;20219;-92
2021/05/04 06:26:59;;;;;;;19.90;9.90;;;;;;;;;;6167584;23;20160;-90
2021/05/04 06:30:04;;;;;;;17.48;10.02;;;;;;;;;;6169884;23;20176;-91
2021/05/04 06:33:10;;;;;;;18.52;10.07;;;;;;;;;;6171260;23;20200;-88
2021/05/04 06:36:15;;;;;;;19.95;9.88;;;;;;;;;;6157174;23;20567;-92
2021/05/04 06:39:20;;;;;;;15.80;8.35;;;;;;;;;;6156693;23;20236;-92
2021/05/04 06:42:25;;;;;;;20.13;8.80;;;;;;;;;;6174649;23;20180;-92
2021/05/04 06:45:30;;;;;;;13.40;7.88;;;;;;;;;;6156211;23;20196;-91
2021/05/04 06:48:36;;;;;;;15.60;8.40;;;;;;;;;;6156726;23;20514;-92
2021/05/04 06:55:02;;;;;;;16.75;8.07;;;;;;;;;;6178156;23;20241;-91
2021/05/04 06:58:07;;;;;;;15.85;8.40;;;;;;;;;;6153598;23;20214;-93
2021/05/04 07:01:13;;;;;;;14.40;8.23;;;;;;;;;;6153382;23;20168;-89
2021/05/04 07:04:18;;;;;;;14.85;8.30;;;;;;;;;;6155194;23;20172;-92
2021/05/04 07:07:23;;;;;;;15.70;7.95;;;;;;;;;;6174194;23;20244;-92
2021/05/04 07:10:28;;;;;;;15.48;6.97;;;;;;;;;;6171837;23;20535;-92
2021/05/04 07:13:33;;;;;;;17.88;7.22;;;;;;;;;;6171736;23;20177;-91
2021/05/04 07:16:39;;;;;;;12.00;6.70;;;;;;;;;;6170627;23;20809;-90
2021/05/04 07:19:54;;;;;;;15.63;6.05;;;;;;;;;;6153491;23;20147;-90
2021/05/04 07:23:00;;;;;;;10.82;6.15;;;;;;;;;;6153189;23;20197;-93
2021/05/04 07:26:05;;;;;;;11.82;6.18;;;;;;;;;;6155183;23;20193;-91
2021/05/04 07:29:12;;;;;;;9.55;5.78;;;;;;;;;;6153003;23;20172;-92
2021/05/04 12:37:37;;;;;;;2.83;1.85;;;;;;;;;;6220831;22;20198;-92
2021/05/04 12:44:33;;;;;;;5.55;2.05;;;;;;;;;;6243171;23;20231;-92
2021/05/04 12:47:48;;;;;;;4.72;1.80;;;;;;;;;;6243111;23;20170;-92
2021/05/04 12:50:58;;;;;;;8.45;2.17;;;;;;;;;;6244136;23;20167;-93
2021/05/04 12:54:10;;;;;;;4.38;2.00;;;;;;;;;;6245700;23;20174;-91
2021/05/04 12:57:20;;;;;;;5.82;2.33;;;;;;;;;;6244946;23;20190;-93
2021/05/04 13:00:25;;;;;;;6.72;2.35;;;;;;;;;;6243729;23;20153;-90
2021/05/04 13:03:44;;;;;;;6.55;2.60;;;;;;;;;;6242279;22;20174;-90
2021/05/04 13:06:53;;;;;;;3.58;2.33;;;;;;;;;;6247523;23;20171;-93
2021/05/04 13:10:08;;;;;;;5.32;3.25;;;;;;;;;;6245600;23;20190;-94
2021/05/04 13:20:26;;;;;;;6.85;1.77;;;;;;;;;;6244890;23;20226;-92
2021/05/04 13:30:53;;;;;;;4.13;2.00;;;;;;;;;;6245914;23;20138;-92
2021/05/04 13:33:58;;;;;;;4.15;2.00;;;;;;;;;;6246050;23;20170;-93
2021/05/04 13:37:04;;;;;;;2.97;1.65;;;;;;;;;;6247419;22;20213;-92
2021/05/04 13:44:40;;;;;;;3.15;1.50;;;;;;;;;;6247739;22;20162;-93
2021/05/04 18:38:05;;;;;;;6.18;2.45;;;;;;;;;;6228254;22;20241;-93
2021/05/04 22:01:07;;;;;;;4.90;2.30;;;;;;;;;;6211139;22;20199;-91
2021/05/04 22:04:48;;;;;;;6.57;2.35;;;;;;;;;;6239402;23;20194;-92
2021/05/04 22:07:53;;;;;;;4.90;2.53;;;;;;;;;;6241088;23;20182;-92
2021/05/04 22:10:57;;;;;;;4.88;2.38;;;;;;;;;;6239336;23;20183;-91
2021/05/04 22:14:05;;;;;;;6.50;2.30;;;;;;;;;;6240605;23;20170;-91
2021/05/04 22:21:06;;;;;;;4.00;2.17;;;;;;;;;;6238964;23;20161;-90
2021/05/04 22:37:45;;;;;;;4.03;2.10;;;;;;;;;;6237455;23;20219;-91
2021/05/04 22:40:55;;;;;;;3.72;2.25;;;;;;;;;;6238918;23;20174;-91
2021/05/04 22:44:12;;;;;;;7.32;3.80;;;;;;;;;;6239201;23;20217;-89
2021/05/04 23:00:58;;;;;;;6.95;2.45;;;;;;;;;;6235933;23;20167;-93
2021/05/04 23:17:36;;;;;;;5.65;2.63;;;;;;;;;;6239688;23;20168;-92
2021/05/04 23:20:40;;;;;;;5.45;2.60;;;;;;;;;;6239173;23;20242;-92
2021/05/04 23:23:46;;;;;;;4.07;2.33;;;;;;;;;;6240677;23;20174;-92
2021/05/04 23:26:50;;;;;;;4.80;2.47;;;;;;;;;;6239250;23;20209;-90
2021/05/04 23:29:55;;;;;;;4.25;2.80;;;;;;;;;;6238925;23;20194;-92
2021/05/04 23:32:59;;;;;;;7.00;2.53;;;;;;;;;;6239166;23;20194;-90
2021/05/04 23:36:04;;;;;;;7.20;2.63;;;;;;;;;;6239342;23;20169;-92
2021/05/04 23:39:09;;;;;;;6.28;3.45;;;;;;;;;;6239951;23;20182;-92
2021/05/04 23:42:14;;;;;;;7.13;2.45;;;;;;;;;;6237637;23;20231;-91
2021/05/04 23:45:18;;;;;;;5.20;2.40;;;;;;;;;;6238110;23;20163;-93
2021/05/04 23:48:22;;;;;;;5.47;3.08;;;;;;;;;;6236539;23;20169;-92
2021/05/04 23:51:27;;;;;;;7.75;2.70;;;;;;;;;;6225164;23;20190;-91
2021/05/04 23:54:32;;;;;;;6.75;2.70;;;;;;;;;;6224983;23;20167;-90
2021/05/04 23:57:36;;;;;;;8.57;3.60;;;;;;;;;;6226142;23;20159;-93
